Bookmark and Share
Track history (hours):
 

Jeanie G

More information available from US FCC via Universal Licensing System and Coast Guard Vessel Documentation Center.

Last reported at 2014-Mar-26 20:07 UTC. Time now 2014-Apr-16 10:30 UTC.
Position N 29°44' W 091°34'.
Warning: this ship's position is 20 days out of date.

MMSI: 366875010.

NotesDate/timePositionNaut miles runAvg speedWind from/ knotsBaromVisibWave heightAir tempDewpointWater temp
2014-Mar-26 20:07N 29°44' W 091°34'3 6.0
2014-Mar-26 19:34N 29°42' W 091°31'12 6.2
2014-Mar-26 17:34N 29°39' W 091°17'6 6.0
2014-Mar-26 16:34N 29°41' W 091°11'2 2.5
2014-Mar-26 15:33N 29°40' W 091°08'5 4.7
2014-Mar-26 14:34N 29°37' W 091°04'5 5.0
2014-Mar-26 13:33N 29°36' W 090°58'6 5.3
2014-Mar-26 12:29N 29°33' W 090°53'  
2014-Mar-20 04:31N 29°51' W 091°55'10 4.6
2014-Mar-20 02:18N 29°46' W 091°44'4 5.0
2014-Mar-20 01:33N 29°46' W 091°40'6 5.7
2014-Mar-20 00:33N 29°44' W 091°34'6 6.3
2014-Mar-19 23:33N 29°41' W 091°28'6 6.0
2014-Mar-19 22:33N 29°39' W 091°22'6 6.3
2014-Mar-19 21:33N 29°40' W 091°14'4 3.8
2014-Mar-19 20:33N 29°41' W 091°10'3 3.3
2014-Mar-19 19:33N 29°39' W 091°07'5 4.5
2014-Mar-19 18:33N 29°37' W 091°02'4 4.4
2014-Mar-19 17:33N 29°35' W 090°58'5 5.1
2014-Mar-19 16:33N 29°33' W 090°53'5 1.0
2014-Mar-19 11:33N 29°32' W 090°47'0 0.0
2014-Mar-19 10:32N 29°32' W 090°47'12 1.8
2014-Mar-19 04:04N 29°21' W 090°44'0 0.0
2014-Mar-19 03:27N 29°21' W 090°44'0 0.0
2014-Mar-19 02:24N 29°21' W 090°44'  

Dump ship's entire track history

sailing weather and tide predictions

Jeanie G — WDB2354 — position and weather